Time;durP1;ratioP1;P1;durP2;ratioP2;P2;SDS_P1;SDS_P2;PMS_P1;PMS_P2;Temp;Humidity;BMP_temperature;BMP_pressure;BME280_temperature;BME280_humidity;BME280_pressure;Samples;Min_cycle;Max_cycle;Signal;HPM_P1;HPM_P2
2022/07/18 00:01:58;;;;;;;9.13;1.88;;;;;;;16.89;57.20;102035.97;5067441;28;20541;-67
2022/07/18 00:04:25;;;;;;;3.85;1.80;;;;;;;16.86;57.03;102033.50;5067050;28;20459;-67
2022/07/18 00:06:52;;;;;;;5.88;2.58;;;;;;;16.87;57.14;102033.44;5067658;28;20044;-67
2022/07/18 00:09:19;;;;;;;5.65;1.80;;;;;;;16.93;56.71;102037.50;5068487;28;20041;-67
2022/07/18 00:11:45;;;;;;;4.85;2.05;;;;;;;17.04;56.40;102040.38;5056661;28;20044;-67
2022/07/18 00:14:12;;;;;;;6.35;1.83;;;;;;;17.06;56.21;102038.53;5057181;28;20045;-67
2022/07/18 00:16:38;;;;;;;4.75;1.88;;;;;;;16.77;57.55;102042.00;5080137;28;20040;-67
2022/07/18 00:19:07;;;;;;;4.75;2.00;;;;;;;16.50;58.28;102034.63;5061424;28;20041;-67
2022/07/18 00:21:33;;;;;;;8.32;2.05;;;;;;;16.38;58.57;102039.75;5067485;28;20044;-67
2022/07/18 00:24:00;;;;;;;6.78;2.50;;;;;;;16.70;57.86;102051.22;5068521;28;20049;-67
2022/07/18 00:26:26;;;;;;;7.68;2.05;;;;;;;16.94;57.10;102049.81;5068603;28;20066;-67
2022/07/18 00:28:52;;;;;;;7.28;2.20;;;;;;;17.01;56.76;102049.38;5066687;28;20044;-67
2022/07/18 00:31:19;;;;;;;4.28;1.90;;;;;;;17.04;56.68;102051.00;5066757;28;20048;-67
2022/07/18 00:33:45;;;;;;;9.23;2.17;;;;;;;17.10;56.70;102060.41;5066765;28;20483;-67
2022/07/18 00:36:13;;;;;;;4.65;1.98;;;;;;;17.06;56.87;102054.44;5066866;28;20053;-67
2022/07/18 00:38:39;;;;;;;5.10;1.90;;;;;;;17.10;56.27;102053.31;5067088;28;20890;-67
2022/07/18 00:41:07;;;;;;;6.60;2.25;;;;;;;17.08;56.68;102057.81;5065640;28;20090;-67
2022/07/18 00:43:33;;;;;;;10.85;2.42;;;;;;;16.97;56.63;102047.00;5066961;28;20114;-67
2022/07/18 00:46:00;;;;;;;5.38;2.20;;;;;;;16.66;57.77;102044.41;5067584;28;20041;-67
2022/07/18 00:48:26;;;;;;;6.60;2.67;;;;;;;16.51;58.38;102038.13;5066658;28;20052;-67
2022/07/18 00:50:52;;;;;;;4.43;2.30;;;;;;;16.22;59.33;102038.91;5067693;28;20041;-67
2022/07/18 00:53:20;;;;;;;5.85;2.20;;;;;;;16.12;59.56;102037.66;5067028;28;20048;-67
2022/07/18 00:55:48;;;;;;;5.40;2.10;;;;;;;16.21;59.58;102043.31;5065999;28;20408;-67
2022/07/18 00:58:14;;;;;;;6.30;2.25;;;;;;;16.25;59.16;102047.50;5068043;28;20083;-67
2022/07/18 01:03:26;;;;;;;9.18;2.30;;;;;;;16.09;60.49;102043.97;5066877;28;20051;-67
2022/07/18 01:05:52;;;;;;;5.47;2.17;;;;;;;16.07;60.58;102049.34;5057839;28;20040;-67
2022/07/18 01:08:20;;;;;;;7.55;2.10;;;;;;;16.19;60.73;102049.63;5066389;28;20349;-67
2022/07/18 01:10:47;;;;;;;15.98;2.28;;;;;;;16.19;60.58;102047.84;5066001;28;20101;-67
2022/07/18 01:13:13;;;;;;;6.18;2.10;;;;;;;16.17;60.41;102052.38;5045869;28;20060;-67
2022/07/18 01:15:39;;;;;;;5.38;2.40;;;;;;;16.13;60.85;102047.31;5046635;28;20318;-67
2022/07/18 01:18:06;;;;;;;5.35;2.17;;;;;;;16.04;61.72;102052.16;5047401;28;20049;-67
2022/07/18 01:20:33;;;;;;;5.07;2.03;;;;;;;16.01;61.58;102041.75;5046190;28;20076;-67
2022/07/18 01:23:00;;;;;;;4.38;2.00;;;;;;;15.69;63.11;102039.97;5046303;28;20049;-67
2022/07/18 01:25:27;;;;;;;6.97;3.13;;;;;;;15.56;64.00;102041.50;5046351;28;20703;-67
2022/07/18 01:27:55;;;;;;;10.15;2.58;;;;;;;15.46;64.39;102043.75;5046146;28;20041;-67
2022/07/18 01:30:21;;;;;;;6.43;2.55;;;;;;;15.51;64.29;102046.22;5045831;28;20049;-67
2022/07/18 01:32:55;;;;;;;7.40;2.30;;;;;;;15.79;63.25;102046.47;5046489;28;20484;-67
2022/07/18 01:35:22;;;;;;;5.05;2.40;;;;;;;15.90;62.06;102053.84;5066031;28;20322;-67
2022/07/18 01:37:51;;;;;;;8.35;2.53;;;;;;;15.91;61.88;102055.56;5065839;28;20076;-67
2022/07/18 01:40:18;;;;;;;6.57;2.70;;;;;;;15.97;61.40;102042.84;5064016;28;20048;-67
2022/07/18 01:42:44;;;;;;;3.97;2.17;;;;;;;15.88;62.26;102039.84;5066794;28;20094;-67
2022/07/18 01:45:11;;;;;;;7.97;2.95;;;;;;;15.59;63.45;102039.56;5065877;28;20079;-67
2022/07/18 01:47:37;;;;;;;6.22;2.28;;;;;;;15.39;64.10;102036.22;5065991;28;20095;-67
2022/07/18 01:50:05;;;;;;;7.68;2.38;;;;;;;15.08;65.21;102039.53;5066626;28;20450;-67
2022/07/18 01:52:32;;;;;;;6.28;2.72;;;;;;;14.95;65.48;102033.19;5066284;28;20045;-67
2022/07/18 01:54:59;;;;;;;7.32;2.58;;;;;;;14.79;66.01;102035.69;5074233;28;20095;-67
2022/07/18 01:57:26;;;;;;;5.53;2.65;;;;;;;14.59;67.00;102028.75;5064853;28;20106;-67
2022/07/18 01:59:52;;;;;;;5.88;2.33;;;;;;;14.77;66.61;102042.84;5064517;28;20436;-67
2022/07/18 02:02:19;;;;;;;7.53;2.25;;;;;;;14.94;65.71;102028.81;5066562;28;20052;-67
2022/07/18 02:05:00;;;;;;;11.70;2.70;;;;;;;15.14;65.27;102030.47;5065035;28;20098;-67
2022/07/18 02:07:27;;;;;;;7.82;2.30;;;;;;;15.31;64.22;102038.41;5049649;28;20052;-67
2022/07/18 02:09:53;;;;;;;4.45;2.28;;;;;;;15.09;64.68;102028.06;5049902;28;20131;-67
2022/07/18 02:12:21;;;;;;;7.68;2.13;;;;;;;15.25;64.18;102030.78;5052915;28;20068;-67
2022/07/18 02:14:47;;;;;;;6.32;2.53;;;;;;;15.15;64.36;102027.75;5044908;28;20045;-67
2022/07/18 02:17:14;;;;;;;4.88;2.50;;;;;;;15.15;64.16;102021.63;5045520;28;20048;-67
2022/07/18 02:19:40;;;;;;;7.53;2.50;;;;;;;14.99;64.58;102024.16;5044007;28;20045;-67
2022/07/18 02:22:07;;;;;;;7.35;3.30;;;;;;;14.74;65.56;102026.31;5046170;28;20122;-67
2022/07/18 02:24:33;;;;;;;7.88;3.30;;;;;;;14.85;65.52;102021.38;5047944;28;20114;-67
2022/07/18 02:27:00;;;;;;;7.38;2.88;;;;;;;15.08;64.55;102023.69;5069056;28;20044;-67
2022/07/18 02:29:28;;;;;;;8.75;2.53;;;;;;;15.29;63.90;102020.00;5068855;28;20048;-67
2022/07/18 02:31:54;;;;;;;6.38;2.53;;;;;;;15.34;63.45;102030.31;5068890;28;20458;-67
2022/07/18 02:34:21;;;;;;;5.55;2.30;;;;;;;15.35;63.49;102035.53;5067962;28;20045;-67
2022/07/18 02:36:50;;;;;;;5.57;2.40;;;;;;;15.42;62.91;102042.22;5069275;28;20102;-67
2022/07/18 02:39:17;;;;;;;7.38;2.75;;;;;;;15.54;62.53;102044.25;5069026;28;20056;-67
2022/07/18 02:41:44;;;;;;;9.52;2.33;;;;;;;15.62;62.70;102043.00;5067336;28;20520;-67
2022/07/18 02:44:10;;;;;;;6.25;2.45;;;;;;;15.64;62.19;102041.97;5069194;28;20049;-67
2022/07/18 02:46:38;;;;;;;12.00;2.42;;;;;;;15.79;61.50;102040.31;5068761;28;20040;-67
2022/07/18 02:49:04;;;;;;;12.38;2.60;;;;;;;15.65;61.58;102030.47;5068510;28;20808;-67
2022/07/18 02:51:30;;;;;;;7.13;2.00;;;;;;;15.47;61.89;102032.25;5069454;28;20569;-67
2022/07/18 02:53:57;;;;;;;7.07;2.53;;;;;;;15.47;61.75;102034.03;5069177;28;20044;-67
2022/07/18 02:56:23;;;;;;;6.53;2.58;;;;;;;15.16;62.87;102023.31;5051709;28;20053;-67
2022/07/18 02:58:50;;;;;;;5.00;2.20;;;;;;;15.10;63.11;102016.56;5053423;28;20119;-67
2022/07/18 03:01:16;;;;;;;6.70;2.50;;;;;;;15.23;62.84;102030.00;5066671;28;20507;-67
2022/07/18 03:03:44;;;;;;;9.45;2.50;;;;;;;15.32;62.83;102026.91;5069118;28;20048;-67
2022/07/18 03:06:10;;;;;;;6.90;1.90;;;;;;;15.39;62.70;102029.16;5067858;28;20097;-67
2022/07/18 03:08:36;;;;;;;5.80;2.45;;;;;;;15.40;63.04;102032.66;5067832;28;20055;-67
2022/07/18 03:11:03;;;;;;;5.63;2.22;;;;;;;15.25;62.16;102039.56;5068025;28;20044;-67
2022/07/18 03:13:29;;;;;;;5.57;2.10;;;;;;;15.15;62.68;102033.03;5047865;28;20064;-67
2022/07/18 03:15:55;;;;;;;6.93;2.65;;;;;;;15.15;62.84;102040.13;5047961;28;20045;-67
2022/07/18 03:18:24;;;;;;;11.45;2.15;;;;;;;15.25;62.90;102030.78;5048800;28;20119;-67
2022/07/18 03:20:52;;;;;;;6.20;2.17;;;;;;;15.13;62.70;102032.25;5047210;28;20128;-67
2022/07/18 03:23:18;;;;;;;5.97;2.10;;;;;;;15.07;62.84;102035.22;5050376;28;20084;-67
2022/07/18 03:25:45;;;;;;;6.25;2.08;;;;;;;14.78;63.94;102027.88;5073914;28;20488;-67
2022/07/18 03:28:11;;;;;;;7.18;2.50;;;;;;;14.60;65.80;102029.59;5069275;28;20090;-67
2022/07/18 03:30:37;;;;;;;4.45;2.17;;;;;;;14.42;67.11;102026.06;5067194;28;20127;-67
2022/07/18 03:33:04;;;;;;;7.32;2.67;;;;;;;14.38;67.23;102026.25;5052080;28;20045;-67
2022/07/18 03:35:30;;;;;;;4.20;2.50;;;;;;;14.22;68.27;102023.47;5047108;28;20044;-67
2022/07/18 03:37:58;;;;;;;8.77;2.80;;;;;;;14.02;69.29;102031.44;5066329;28;20093;-67
2022/07/18 03:40:24;;;;;;;8.80;2.47;;;;;;;13.94;69.89;102026.50;5068759;28;20048;-67
2022/07/18 03:42:50;;;;;;;10.77;3.22;;;;;;;13.92;70.26;102035.41;5053163;28;20488;-67
2022/07/18 03:45:17;;;;;;;6.20;2.80;;;;;;;14.06;69.86;102027.72;5066106;28;20048;-67
2022/07/18 03:47:43;;;;;;;8.82;2.63;;;;;;;14.00;69.73;102030.66;5068019;28;20044;-67
2022/07/18 03:50:10;;;;;;;7.30;2.40;;;;;;;14.04;69.88;102017.25;5068362;28;20464;-67
2022/07/18 03:52:36;;;;;;;6.80;2.60;;;;;;;14.15;69.49;102017.59;5066339;28;20492;-67
2022/07/18 03:55:05;;;;;;;7.18;2.30;;;;;;;14.21;69.17;102019.13;5068825;28;20056;-67
2022/07/18 03:57:31;;;;;;;6.82;2.63;;;;;;;14.18;69.88;102016.63;5065081;28;20109;-67
2022/07/18 03:59:57;;;;;;;6.97;2.50;;;;;;;14.55;68.36;102027.19;5065917;28;20051;-67
2022/07/18 04:02:24;;;;;;;5.50;2.45;;;;;;;14.81;67.45;102033.00;5068360;28;20095;-67
2022/07/18 04:04:50;;;;;;;5.95;3.38;;;;;;;14.99;67.30;102038.25;5067011;28;20465;-67
2022/07/18 04:07:16;;;;;;;6.35;2.75;;;;;;;15.18;66.72;102034.69;5067436;28;20524;-67
2022/07/18 04:09:43;;;;;;;5.88;2.88;;;;;;;15.42;65.32;102033.41;5066186;28;20048;-67
2022/07/18 04:12:10;;;;;;;6.47;2.47;;;;;;;15.62;64.32;102035.06;5078372;28;20121;-67
2022/07/18 04:14:37;;;;;;;9.98;2.97;;;;;;;15.59;64.84;102047.50;5066710;28;20044;-67
2022/07/18 04:17:03;;;;;;;6.90;2.40;;;;;;;15.69;64.68;102033.81;5066588;28;20068;-67
2022/07/18 04:19:29;;;;;;;9.93;2.58;;;;;;;15.55;64.64;102032.75;5065796;28;20049;-67
2022/07/18 04:21:56;;;;;;;8.00;2.70;;;;;;;15.52;65.35;102017.03;5067032;28;20385;-67
2022/07/18 04:24:22;;;;;;;3.95;2.17;;;;;;;15.61;64.98;102020.13;5074260;28;20525;-67
2022/07/18 04:26:48;;;;;;;9.35;2.70;;;;;;;15.64;64.68;102018.19;5057595;28;20045;-67
2022/07/18 04:29:16;;;;;;;7.82;2.58;;;;;;;15.69;65.02;102013.53;5066689;28;20048;-67
2022/07/18 04:31:42;;;;;;;7.18;2.60;;;;;;;15.86;64.86;102015.25;5067127;28;20466;-67
2022/07/18 04:34:09;;;;;;;7.18;2.63;;;;;;;16.15;63.70;102003.94;5065520;28;20101;-67
2022/07/18 04:36:35;;;;;;;11.88;2.70;;;;;;;16.44;63.13;102003.19;5067117;28;20048;-67
2022/07/18 04:39:01;;;;;;;6.93;2.58;;;;;;;16.65;62.28;101997.66;5066911;28;20064;-67
2022/07/18 04:41:28;;;;;;;8.68;2.85;;;;;;;16.78;61.84;102006.59;5058346;28;20106;-67
2022/07/18 04:43:54;;;;;;;6.72;2.25;;;;;;;16.83;61.91;102009.84;5051693;28;20045;-67
2022/07/18 04:46:22;;;;;;;7.00;2.60;;;;;;;16.79;62.76;102000.38;5062491;28;20102;-67
2022/07/18 04:48:48;;;;;;;5.85;2.22;;;;;;;16.78;62.68;102003.94;5062321;28;20461;-67
2022/07/18 04:51:15;;;;;;;6.40;2.50;;;;;;;16.73;63.36;102008.69;5066614;28;20048;-67
2022/07/18 04:53:41;;;;;;;5.70;2.47;;;;;;;16.81;63.65;102011.75;5066291;28;20045;-67
2022/07/18 04:56:08;;;;;;;6.93;2.63;;;;;;;16.78;63.46;102009.25;5048592;28;20098;-67
2022/07/18 04:58:34;;;;;;;7.43;2.85;;;;;;;16.92;63.08;102006.69;5047271;28;20098;-67
2022/07/18 05:01:00;;;;;;;6.75;2.08;;;;;;;16.79;62.79;102000.38;5044953;28;20064;-67
2022/07/18 05:03:28;;;;;;;15.90;3.00;;;;;;;17.07;61.76;102007.56;5046297;28;20049;-67
2022/07/18 05:05:54;;;;;;;11.10;3.72;;;;;;;17.83;59.97;101987.91;5066739;28;20113;-67
2022/07/18 05:08:21;;;;;;;7.63;3.88;;;;;;;18.13;59.60;101983.34;5067080;28;20097;-67
2022/07/18 05:10:47;;;;;;;9.38;4.13;;;;;;;18.23;59.71;101988.91;5065417;28;20114;-67
2022/07/18 05:13:14;;;;;;;10.63;4.78;;;;;;;18.25;60.03;101990.53;5066577;28;20078;-67
2022/07/18 05:15:40;;;;;;;8.38;3.08;;;;;;;18.57;59.43;101995.59;5066817;28;20044;-67
2022/07/18 05:18:07;;;;;;;8.38;3.30;;;;;;;18.59;59.96;101999.84;5066588;28;20054;-67
2022/07/18 05:20:35;;;;;;;8.70;3.10;;;;;;;18.53;60.49;102004.69;5064864;28;20044;-67
2022/07/18 05:23:01;;;;;;;13.23;3.80;;;;;;;19.25;57.79;101997.13;5065807;28;20113;-67
2022/07/18 05:25:27;;;;;;;10.68;3.33;;;;;;;19.48;56.68;101992.94;5065978;28;20048;-67
2022/07/18 05:27:54;;;;;;;6.70;2.80;;;;;;;19.53;56.25;101992.63;5066035;28;20044;-67
2022/07/18 05:30:22;;;;;;;5.68;3.30;;;;;;;19.58;56.62;101993.19;5065240;28;20052;-67
2022/07/18 05:32:51;;;;;;;7.88;3.53;;;;;;;20.10;54.19;101999.16;5066831;28;20423;-68
2022/07/18 05:35:18;;;;;;;9.98;3.10;;;;;;;20.64;53.09;101996.16;5065778;28;20055;-67
2022/07/18 05:37:46;;;;;;;6.82;2.80;;;;;;;21.31;50.57;102006.13;5065262;28;20049;-67
2022/07/18 05:40:15;;;;;;;6.07;2.83;;;;;;;21.31;51.05;101999.94;5067052;28;20411;-67
2022/07/18 05:42:41;;;;;;;7.47;2.97;;;;;;;21.45;49.63;102005.06;5079708;28;20040;-67
2022/07/18 05:45:09;;;;;;;12.45;2.95;;;;;;;21.83;48.47;101997.59;5084885;28;20040;-67
2022/07/18 05:47:35;;;;;;;7.85;2.80;;;;;;;22.16;48.75;101994.09;5082289;28;20048;-67
2022/07/18 05:50:02;;;;;;;7.57;2.60;;;;;;;22.21;48.24;102001.69;5067178;28;20040;-67
2022/07/18 05:52:28;;;;;;;11.23;2.70;;;;;;;22.36;47.78;102004.97;5065291;28;20557;-67
2022/07/18 05:54:56;;;;;;;13.05;2.63;;;;;;;22.83;46.13;101996.59;5056375;28;20068;-67
2022/07/18 05:57:22;;;;;;;6.70;2.85;;;;;;;23.24;45.17;102009.16;5047143;28;20075;-67
2022/07/18 05:59:49;;;;;;;6.03;2.53;;;;;;;23.23;45.63;102002.97;5047071;28;20068;-67
2022/07/18 06:02:15;;;;;;;12.50;2.55;;;;;;;23.67;43.93;102001.00;5070211;28;20106;-67
2022/07/18 06:04:42;;;;;;;9.73;2.85;;;;;;;23.32;44.99;102005.84;5049920;28;20490;-67
2022/07/18 06:07:08;;;;;;;10.57;2.70;;;;;;;23.73;43.98;101992.41;5068268;28;20044;-67
2022/07/18 06:09:37;;;;;;;4.63;2.30;;;;;;;23.42;45.41;102004.97;5069771;28;20060;-67
2022/07/18 06:12:06;;;;;;;10.15;2.50;;;;;;;22.99;47.66;102002.34;5066830;28;20139;-67
2022/07/18 06:14:32;;;;;;;5.85;2.72;;;;;;;23.22;44.88;102001.25;5048861;28;20565;-67
2022/07/18 06:16:59;;;;;;;6.65;2.80;;;;;;;23.37;44.48;102001.78;5049266;28;20051;-67
2022/07/18 06:19:25;;;;;;;6.00;2.20;;;;;;;24.00;42.54;101997.19;5050220;28;20122;-67
2022/07/18 06:21:52;;;;;;;8.77;2.40;;;;;;;23.69;43.91;101996.34;5048896;28;20558;-67
2022/07/18 06:24:18;;;;;;;4.88;2.08;;;;;;;23.56;42.66;101996.56;5054139;28;20068;-67
2022/07/18 06:26:45;;;;;;;4.22;2.28;;;;;;;23.99;41.95;101990.97;5054806;28;20048;-67
2022/07/18 06:29:12;;;;;;;5.20;2.13;;;;;;;24.77;41.00;101984.81;5067114;28;20109;-67
2022/07/18 06:31:39;;;;;;;4.75;2.10;;;;;;;24.79;42.63;101988.22;5069898;28;20106;-66
2022/07/18 06:34:05;;;;;;;9.25;2.63;;;;;;;25.47;40.02;101991.66;5069494;28;20040;-66
2022/07/18 06:36:32;;;;;;;5.82;2.25;;;;;;;25.79;38.13;101991.34;5068967;28;20052;-66
2022/07/18 06:38:58;;;;;;;6.05;2.25;;;;;;;26.06;37.09;101981.44;5070126;28;20109;-66
2022/07/18 06:41:24;;;;;;;4.93;2.47;;;;;;;26.02;39.15;101993.47;5074202;28;20503;-66
2022/07/18 06:43:51;;;;;;;4.95;2.08;;;;;;;25.71;38.72;102000.13;5088385;28;20117;-66
2022/07/18 06:46:19;;;;;;;5.88;2.10;;;;;;;26.12;37.38;101998.81;5089304;28;20101;-66
2022/07/18 06:48:46;;;;;;;7.70;2.30;;;;;;;26.48;36.59;101984.47;5088555;28;20058;-66
2022/07/18 06:51:12;;;;;;;4.82;2.20;;;;;;;26.09;37.46;101980.28;5088443;28;20047;-66
2022/07/18 06:53:38;;;;;;;5.20;2.10;;;;;;;25.55;38.06;101991.81;5076252;28;20066;-66
2022/07/18 06:56:05;;;;;;;9.75;2.30;;;;;;;25.03;40.56;101983.28;5074525;28;20044;-66
2022/07/18 06:58:32;;;;;;;7.45;2.28;;;;;;;24.45;39.07;101987.75;5067289;28;20053;-66
2022/07/18 07:00:58;;;;;;;5.60;1.90;;;;;;;25.67;39.47;101977.22;5049700;28;20047;-66
2022/07/18 07:03:26;;;;;;;5.88;2.30;;;;;;;26.43;38.38;101977.84;5068562;28;20052;-66
2022/07/18 07:05:52;;;;;;;7.90;2.13;;;;;;;26.53;38.81;101984.00;5067386;28;20090;-66
2022/07/18 07:08:19;;;;;;;4.88;1.95;;;;;;;26.41;37.98;101991.44;5069054;28;20048;-66
2022/07/18 07:10:45;;;;;;;8.73;2.20;;;;;;;26.81;36.90;101988.31;5066887;28;20073;-66
2022/07/18 07:13:11;;;;;;;7.45;2.08;;;;;;;27.13;37.11;101984.22;5054535;28;20122;-66
2022/07/18 07:15:40;;;;;;;7.50;2.33;;;;;;;27.58;34.71;101976.81;5050311;28;20048;-66
2022/07/18 07:18:06;;;;;;;8.40;2.20;;;;;;;27.91;33.56;101973.28;5048320;28;20052;-66
2022/07/18 07:20:34;;;;;;;5.90;2.30;;;;;;;26.91;33.99;101966.72;5047906;28;20071;-66
2022/07/18 07:23:04;;;;;;;5.63;2.15;;;;;;;26.60;35.13;101975.19;5047814;28;20044;-66
2022/07/18 07:25:31;;;;;;;9.70;2.03;;;;;;;27.12;34.34;101969.09;5058163;28;20145;-66
2022/07/18 07:27:57;;;;;;;6.82;2.17;;;;;;;25.98;36.21;101983.16;5050341;28;20462;-66
2022/07/18 07:30:24;;;;;;;7.47;1.83;;;;;;;25.87;38.09;101973.44;5068407;28;20041;-66
2022/07/18 07:32:51;;;;;;;6.35;2.15;;;;;;;25.98;37.84;101967.03;5068105;28;20052;-66
2022/07/18 07:35:19;;;;;;;7.72;1.98;;;;;;;25.30;36.96;101979.00;5066496;28;20049;-66
2022/07/18 07:37:50;;;;;;;2.78;1.60;;;;;;;25.74;37.07;101970.28;5068220;28;20311;-66
2022/07/18 07:40:17;;;;;;;7.38;2.33;;;;;;;26.39;37.93;101963.00;5068088;28;20512;-66
2022/07/18 07:42:44;;;;;;;4.78;2.08;;;;;;;27.09;35.65;101963.00;5063052;28;20080;-66
2022/07/18 07:45:13;;;;;;;8.50;2.70;;;;;;;27.53;34.16;101963.00;5055918;28;20041;-66
2022/07/18 07:47:39;;;;;;;5.68;2.03;;;;;;;27.95;33.49;101971.09;5049197;28;20127;-66
2022/07/18 07:50:08;;;;;;;5.13;1.75;;;;;;;27.68;34.24;101974.03;5046648;28;20041;-66
2022/07/18 07:52:34;;;;;;;6.82;1.73;;;;;;;28.18;32.74;101966.00;5052081;28;20064;-66
2022/07/18 07:55:02;;;;;;;7.65;2.13;;;;;;;28.51;32.52;101965.91;5066890;28;20045;-66
2022/07/18 07:57:29;;;;;;;4.55;1.77;;;;;;;27.43;32.62;101957.66;5060644;28;20045;-66
2022/07/18 07:59:55;;;;;;;4.80;1.73;;;;;;;27.52;34.06;101964.00;5066504;28;20062;-66
2022/07/18 08:02:21;;;;;;;7.68;1.52;;;;;;;28.00;34.17;101961.53;5067648;28;20048;-66
2022/07/18 08:04:48;;;;;;;9.07;2.42;;;;;;;27.92;33.20;101961.50;5066134;28;20041;-66
2022/07/18 08:07:14;;;;;;;6.30;1.92;;;;;;;28.75;33.31;101962.41;5067457;28;20124;-66
2022/07/18 08:09:40;;;;;;;4.75;1.88;;;;;;;27.74;34.98;101966.13;5067924;28;20072;-66
2022/07/18 08:12:08;;;;;;;3.80;1.75;;;;;;;27.85;33.15;101956.91;5065925;28;20048;-66
2022/07/18 08:14:37;;;;;;;4.88;1.80;;;;;;;27.87;33.63;101958.44;5055851;28;20071;-67
2022/07/18 08:17:04;;;;;;;5.50;2.22;;;;;;;28.36;33.43;101953.22;5048722;28;20072;-66
2022/07/18 08:19:30;;;;;;;6.32;1.80;;;;;;;27.45;32.67;101960.22;5046274;28;20056;-66
2022/07/18 08:21:57;;;;;;;5.32;1.80;;;;;;;27.18;34.38;101953.13;5046385;28;20094;-66
2022/07/18 08:24:23;;;;;;;6.00;1.85;;;;;;;28.23;29.90;101947.47;5075626;28;20044;-66
2022/07/18 08:26:49;;;;;;;4.75;1.88;;;;;;;27.55;30.96;101952.91;5050651;28;20044;-66
2022/07/18 08:29:19;;;;;;;7.38;1.50;;;;;;;27.95;31.63;101957.63;5067693;28;20048;-66
2022/07/18 08:31:45;;;;;;;6.28;1.80;;;;;;;28.78;32.04;101959.38;5066846;28;20041;-66
2022/07/18 08:34:11;;;;;;;7.53;1.67;;;;;;;29.62;32.34;101958.94;5065911;28;20040;-67
2022/07/18 08:36:38;;;;;;;4.15;1.67;;;;;;;30.10;28.12;101952.50;5066110;28;20133;-66
2022/07/18 08:39:04;;;;;;;7.10;1.80;;;;;;;29.82;28.52;101949.38;5066668;28;20055;-67
2022/07/18 08:41:31;;;;;;;6.07;1.85;;;;;;;29.65;28.17;101942.38;5065509;28;20610;-67
2022/07/18 08:43:58;;;;;;;4.07;1.52;;;;;;;29.92;32.39;101946.53;5060045;28;20099;-67
2022/07/18 08:46:26;;;;;;;11.18;1.63;;;;;;;29.68;28.24;101952.81;5058713;28;20076;-67
2022/07/18 08:48:55;;;;;;;7.90;2.00;;;;;;;29.63;28.09;101946.28;5066840;28;20045;-67
2022/07/18 08:51:22;;;;;;;6.82;1.90;;;;;;;30.31;26.41;101941.88;5066229;28;20044;-67
2022/07/18 08:53:51;;;;;;;7.50;1.67;;;;;;;30.85;25.95;101942.72;5051553;28;20044;-67
2022/07/18 08:56:17;;;;;;;3.42;1.40;;;;;;;30.65;28.12;101938.81;5049189;28;20047;-67
2022/07/18 08:58:44;;;;;;;4.80;1.75;;;;;;;31.02;33.20;101938.00;5065512;28;20052;-66
2022/07/18 09:01:10;;;;;;;4.32;1.60;;;;;;;30.88;26.10;101933.38;5062336;28;20052;-67
2022/07/18 09:03:38;;;;;;;11.75;1.80;;;;;;;30.31;25.16;101933.78;5066882;28;20101;-66
2022/07/18 09:06:07;;;;;;;5.85;1.92;;;;;;;29.98;27.28;101929.56;5066129;28;20067;-67
2022/07/18 09:08:33;;;;;;;6.05;1.70;;;;;;;29.24;28.27;101932.66;5066584;28;20041;-67
2022/07/18 09:11:01;;;;;;;6.45;2.17;;;;;;;29.11;27.79;101926.94;5066396;28;20664;-66
2022/07/18 09:13:36;;;;;;;5.18;1.60;;;;;;;29.65;29.05;101928.00;5066320;28;20049;-67
2022/07/18 09:16:06;;;;;;;5.28;1.75;;;;;;;29.85;27.35;101922.06;5047519;28;20549;-67
2022/07/18 09:18:34;;;;;;;8.48;1.52;;;;;;;30.36;27.62;101925.13;5047289;28;20045;-67
2022/07/18 09:21:04;;;;;;;5.38;1.98;;;;;;;30.43;26.62;101926.13;5046615;28;20126;-67
2022/07/18 09:23:36;;;;;;;6.03;1.90;;;;;;;30.72;25.13;101922.66;5046419;28;20122;-66
2022/07/18 09:26:04;;;;;;;4.38;1.83;;;;;;;30.13;26.60;101921.53;5045784;28;20286;-67
2022/07/18 09:28:46;;;;;;;6.40;2.35;;;;;;;30.07;25.76;101912.28;5046904;28;20562;-67
2022/07/18 09:31:18;;;;;;;5.32;2.03;;;;;;;30.10;26.48;101919.19;5051525;28;20053;-67
2022/07/18 09:33:52;;;;;;;5.38;2.20;;;;;;;30.56;23.40;101914.69;5049364;28;20049;-66
2022/07/18 09:36:20;;;;;;;8.20;2.30;;;;;;;30.53;25.87;101915.88;5072046;28;20461;-67
2022/07/18 09:38:46;;;;;;;6.57;2.75;;;;;;;30.76;28.70;101914.00;5070140;28;20537;-66
2022/07/18 09:41:16;;;;;;;8.68;3.40;;;;;;;29.68;23.74;101920.38;5071274;28;20063;-66
2022/07/18 09:43:42;;;;;;;8.85;2.83;;;;;;;30.38;25.35;101923.06;5070557;28;20158;-66
2022/07/18 09:46:09;;;;;;;5.85;3.17;;;;;;;30.85;24.41;101914.78;5069190;28;20044;-67
2022/07/18 09:48:35;;;;;;;6.00;2.78;;;;;;;31.31;27.27;101912.81;5069558;28;20040;-67
2022/07/18 09:51:04;;;;;;;6.45;2.90;;;;;;;31.68;24.65;101901.88;5070816;28;20109;-67
2022/07/18 09:53:34;;;;;;;7.88;3.38;;;;;;;32.35;24.37;101909.78;5069973;28;20128;-67
2022/07/18 09:56:02;;;;;;;7.25;3.60;;;;;;;32.72;22.29;101912.25;5070572;28;20113;-67
2022/07/18 09:58:32;;;;;;;7.28;3.42;;;;;;;32.72;22.11;101901.38;5071425;28;20053;-66
2022/07/18 10:01:03;;;;;;;10.52;2.80;;;;;;;32.09;23.55;101893.22;5070697;28;20053;-66
2022/07/18 10:03:30;;;;;;;9.57;3.33;;;;;;;31.46;22.68;101891.97;5069625;28;20045;-66
2022/07/18 10:05:59;;;;;;;5.25;3.83;;;;;;;31.17;24.65;101891.97;5070738;28;20561;-66
2022/07/18 10:08:32;;;;;;;9.43;3.90;;;;;;;31.71;24.26;101889.81;5071256;28;20377;-67
2022/07/18 10:11:01;;;;;;;9.77;4.00;;;;;;;31.44;24.07;101894.03;5057844;28;20056;-67
2022/07/18 10:13:30;;;;;;;6.03;3.17;;;;;;;31.92;23.64;101895.28;5068454;28;20478;-68
2022/07/18 10:15:57;;;;;;;8.15;2.90;;;;;;;32.25;24.50;101888.38;5048533;28;20407;-66
2022/07/18 10:18:24;;;;;;;6.00;2.50;;;;;;;31.59;22.88;101889.47;5049974;28;20060;-66
2022/07/18 10:20:57;;;;;;;12.32;2.88;;;;;;;31.71;22.46;101890.66;5048569;28;20037;-66
2022/07/18 10:23:29;;;;;;;8.05;3.00;;;;;;;30.73;24.35;101891.88;5048927;28;20114;-66
2022/07/18 10:26:10;;;;;;;5.47;2.63;;;;;;;31.06;24.58;101895.13;5050130;28;20099;-66
2022/07/18 10:29:09;;;;;;;4.80;2.53;;;;;;;31.50;25.62;101885.13;5049977;28;20053;-66
2022/07/18 10:31:38;;;;;;;5.43;2.70;;;;;;;32.56;25.82;101888.03;5053350;28;20304;-66
2022/07/18 10:34:11;;;;;;;8.65;2.40;;;;;;;32.99;21.90;101891.56;5057760;28;20048;-66
2022/07/18 10:36:39;;;;;;;5.93;2.75;;;;;;;32.50;22.74;101886.09;5067367;28;20117;-66
2022/07/18 10:39:08;;;;;;;7.28;2.65;;;;;;;31.35;22.38;101885.16;5067412;28;20125;-66
2022/07/18 10:42:17;;;;;;;5.85;2.35;;;;;;;31.01;24.38;101886.69;5069657;28;20466;-66
2022/07/18 10:44:44;;;;;;;9.50;2.47;;;;;;;31.74;24.96;101878.59;5056282;28;20557;-66
2022/07/18 10:47:12;;;;;;;3.55;2.05;;;;;;;31.97;22.89;101878.41;5069896;28;20122;-66
2022/07/18 10:50:07;;;;;;;5.90;2.60;;;;;;;32.30;25.27;101879.63;5069264;28;20124;-66
2022/07/18 10:52:59;;;;;;;5.90;2.20;;;;;;;32.68;25.96;101872.09;5070073;28;20491;-66
2022/07/18 10:55:32;;;;;;;5.97;2.42;;;;;;;32.48;23.03;101868.34;5049380;28;20040;-65
2022/07/18 10:58:20;;;;;;;4.38;2.20;;;;;;;31.81;23.55;101869.50;5045920;28;20041;-66
2022/07/18 11:00:50;;;;;;;4.15;2.35;;;;;;;32.04;24.45;101863.91;5059090;28;20127;-66
2022/07/18 11:03:23;;;;;;;6.00;2.33;;;;;;;31.93;24.48;101850.84;5068041;28;20048;-66
2022/07/18 11:05:55;;;;;;;4.68;2.38;;;;;;;31.25;23.53;101846.66;5068852;28;20484;-66
2022/07/18 11:08:24;;;;;;;;;;;;;;;32.04;26.04;101855.75;5069551;28;20049;-66
2022/07/18 11:11:07;;;;;;;5.97;2.33;;;;;;;32.15;22.27;101846.31;5050522;28;20324;-66
2022/07/18 11:13:36;;;;;;;10.30;2.10;;;;;;;32.55;22.84;101842.09;5070361;28;20093;-66
2022/07/18 11:16:06;;;;;;;5.22;2.17;;;;;;;32.78;23.07;101845.41;5068026;28;20044;-66
2022/07/18 11:18:34;;;;;;;4.32;1.90;;;;;;;33.23;21.85;101842.19;5068977;28;20102;-66
2022/07/18 11:21:00;;;;;;;10.00;2.42;;;;;;;32.75;23.39;101845.81;5068017;28;20115;-67
2022/07/18 11:23:28;;;;;;;3.83;2.33;;;;;;;32.95;24.98;101845.97;5069062;28;20522;-66
2022/07/18 11:25:56;;;;;;;5.35;2.20;;;;;;;33.69;24.81;101833.41;5060766;28;20044;-66
2022/07/18 11:28:23;;;;;;;6.40;2.00;;;;;;;33.35;22.29;101826.13;5068022;28;20056;-66
2022/07/18 11:31:02;;;;;;;5.30;2.20;;;;;;;33.20;21.71;101828.16;5069646;28;20048;-66